Airfield :
LOGIN :

Register | Disclaimer

   EN    FR    IT 

 










Legend :    VFR   Marginal VFR   IFR   Intensive IFR   Very Intensive IFR
Visi :
Ceiling :
>= 8 km
>= 3000ft
5 to 8 km
1000 to 3000 ft
1500m to 5 km
500 to 1000 ft
800 to 1500m
200 to 500 ft
< 800m
< 200 ft
Symbols :   Thunderstorms  Fog  Heavy snow  Heavy precipitations  Wind > 20 kt
SIGMETs :     Misc.  Thunderstorms  Icing  Turbulence  Mountain Waves  Volcanic Ashes







- Airport Elevation : 2265 ft
- IATA code : CZL


DABC - Mohamed Boudiaf Int. Constantine

CURRENT METAR :
  • 190800Z 34005KT 9999 SCT030 20/11 Q1021

EXPIRED METARs :
  • 190730Z 36006KT 320V040 9999 BKN030 18/11 Q1021
  • 190700Z 31004KT 260V010 9999 BKN030 18/11 Q1021
  • 190630Z 32004KT 240V360 9999 BKN030 17/11 Q1021
  • 190600Z 31004KT 280V350 9999 BKN030 17/12 Q1021
  • 190530Z 27003KT 9999 BKN030 16/11 Q1021

TAF TAF DABC
Valid from the 19 at 06:00 until the 20 at 06:00 UTC


190500Z 1906/2006 30008KT 9999 SCT026 SCT090
TEMPO 1906/1915 FEW023TCU BKN030
BECMG 1909/1912 04012KT
BECMG 1920/1922 VRB02KT
No reported NOTAMs for that airfield.



MET'MAP, your aeronautical weather chart ! - Copyright ORBIFLY December 2007 - Disclaimer

ORBIFLY MET'MAP TEAM :

Programming & Development : Alexandra Zaïnal
Concept & Development : Baudouin d'Aumeries
Co-Development & Prog : Marc-Olivier Méhu
Technical & hardware support : Manuel Goepfert

Contact : metmap@orbifly.com




SOURCES & CREDITS :

   NOAA